createdAt,value
2023-04-13T00:02:33.948Z,99181.94
2023-04-13T00:05:10.892Z,99185.53
2023-04-13T00:07:43.215Z,99178.63
2023-04-13T00:10:15.926Z,99184.78
2023-04-13T00:12:48.335Z,99186.59
2023-04-13T00:15:19.676Z,99177.03
2023-04-13T00:17:51.344Z,99185.81
2023-04-13T00:20:22.721Z,99186.72
2023-04-13T00:22:54.248Z,99181.50
2023-04-13T00:25:25.544Z,99173.69
2023-04-13T00:27:56.838Z,99173.75
2023-04-13T00:30:28.539Z,99162.56
2023-04-13T00:32:59.866Z,99181.72
2023-04-13T00:35:31.912Z,99162.59
2023-04-13T00:38:04.141Z,99161.78
2023-04-13T00:40:37.713Z,99168.72
2023-04-13T00:43:09.154Z,99171.41
2023-04-13T00:45:41.360Z,99171.41
2023-04-13T00:48:13.500Z,99167.94
2023-04-13T00:50:45.190Z,99158.34
2023-04-13T00:53:16.943Z,99154.88
2023-04-13T00:55:48.959Z,99155.75
2023-04-13T00:58:20.229Z,99152.31
2023-04-13T01:00:51.482Z,99155.84
2023-04-13T01:03:22.898Z,99156.75
2023-04-13T01:06:17.841Z,99155.88
2023-04-13T01:09:08.699Z,99140.28
2023-04-13T01:11:48.040Z,99148.03
2023-04-13T01:14:26.088Z,99147.16
2023-04-13T01:17:03.833Z,99150.63
2023-04-13T01:19:53.922Z,99146.28
2023-04-13T01:22:28.859Z,99142.81
2023-04-13T01:25:27.456Z,99138.47
2023-04-13T01:28:02.641Z,99137.59
2023-04-13T01:30:36.048Z,99135.00
2023-04-13T01:33:09.983Z,99141.97
2023-04-13T01:35:42.104Z,99135.84
2023-04-13T01:38:14.242Z,99141.94
2023-04-13T01:40:45.941Z,99145.44
2023-04-13T01:43:18.407Z,99134.06
2023-04-13T01:46:15.575Z,99144.47
2023-04-13T01:48:51.697Z,99136.59
2023-04-13T01:51:29.964Z,99140.09
2023-04-13T01:54:12.665Z,99136.59
2023-04-13T01:56:44.618Z,99131.34
2023-04-13T01:59:19.260Z,99138.31
2023-04-13T02:01:50.649Z,99112.31
2023-04-13T02:04:22.558Z,99134.81
2023-04-13T02:06:54.037Z,99143.56
2023-04-13T02:09:25.294Z,99138.31
2023-04-13T02:11:56.560Z,99137.47
2023-04-13T02:14:27.854Z,99147.09
2023-04-13T02:16:59.192Z,99157.59
2023-04-13T02:19:30.447Z,99161.06
2023-04-13T02:22:02.044Z,99157.59
2023-04-13T02:24:33.412Z,99133.28
2023-04-13T02:27:05.407Z,99149.72
2023-04-13T02:29:36.657Z,99154.06
2023-04-13T02:32:08.164Z,99154.03
2023-04-13T02:34:39.899Z,99147.88
2023-04-13T02:37:11.740Z,99153.13
2023-04-13T02:39:43.014Z,99140.88
2023-04-13T02:42:14.637Z,99148.78
2023-04-13T02:44:46.531Z,99128.88
2023-04-13T02:47:18.088Z,99134.88
2023-04-13T02:49:49.547Z,99144.34
2023-04-13T02:52:21.550Z,99121.78
2023-04-13T02:54:54.626Z,99137.34
2023-04-13T02:57:25.954Z,99140.88
2023-04-13T02:59:57.683Z,99145.22
2023-04-13T03:02:31.127Z,99143.47
2023-04-13T03:05:03.656Z,99146.13
2023-04-13T03:07:36.087Z,99134.00
2023-04-13T03:10:08.840Z,99140.91
2023-04-13T03:12:40.151Z,99141.78
2023-04-13T03:15:12.030Z,99131.34
2023-04-13T03:17:44.149Z,99138.38
2023-04-13T03:20:16.837Z,99133.94
2023-04-13T03:22:48.191Z,99141.78
2023-04-13T03:25:19.445Z,99138.28
2023-04-13T03:27:51.593Z,99132.19
2023-04-13T03:30:23.058Z,99137.41
2023-04-13T03:32:55.187Z,99129.59
2023-04-13T03:35:27.224Z,99134.78
2023-04-13T03:37:58.561Z,99134.78
2023-04-13T03:40:29.890Z,99129.50
2023-04-13T03:43:01.524Z,99125.97
2023-04-13T03:45:33.206Z,99130.25
2023-04-13T03:48:05.868Z,99116.38
2023-04-13T03:50:37.506Z,99132.84
2023-04-13T03:53:08.774Z,99123.31
2023-04-13T03:55:40.115Z,99133.66
2023-04-13T03:58:11.677Z,99136.25
2023-04-13T04:00:42.944Z,99137.09
2023-04-13T04:03:17.350Z,99129.22
2023-04-13T04:05:48.684Z,99125.75
2023-04-13T04:08:20.146Z,99133.56
2023-04-13T04:10:51.944Z,99130.03
2023-04-13T04:13:23.378Z,99123.06
2023-04-13T04:15:54.823Z,99128.31
2023-04-13T04:18:26.204Z,99138.75
2023-04-13T04:20:57.468Z,99118.75
2023-04-13T04:23:29.417Z,99136.13
2023-04-13T04:26:02.971Z,99131.81
2023-04-13T04:28:38.573Z,99146.53
2023-04-13T04:31:12.853Z,99144.66
2023-04-13T04:33:44.343Z,99144.53
2023-04-13T04:36:16.567Z,99137.41
2023-04-13T04:38:49.707Z,99144.31
2023-04-13T04:41:21.506Z,99143.34
2023-04-13T04:43:56.702Z,99149.28
2023-04-13T04:46:29.487Z,99149.13
2023-04-13T04:49:01.054Z,99150.75
2023-04-13T04:51:34.128Z,99157.53
2023-04-13T04:54:06.061Z,99157.19
2023-04-13T04:56:37.364Z,99162.19
2023-04-13T04:59:10.327Z,99135.06
2023-04-13T05:01:43.101Z,99159.13
2023-04-13T05:04:14.697Z,99156.41
2023-04-13T05:06:46.697Z,99159.78
2023-04-13T05:09:19.534Z,99164.00
2023-04-13T05:11:51.213Z,99168.25
2023-04-13T05:14:22.524Z,99167.25
2023-04-13T05:16:53.837Z,99155.72
2023-04-13T05:19:25.210Z,99164.38
2023-04-13T05:21:56.484Z,99148.66
2023-04-13T05:24:27.771Z,99150.41
2023-04-13T05:26:59.047Z,99154.59
2023-04-13T05:29:31.141Z,99162.25
2023-04-13T05:32:03.125Z,99153.47
2023-04-13T05:34:35.980Z,99170.63
2023-04-13T05:37:07.370Z,99179.34
2023-04-13T05:39:39.924Z,99162.00
2023-04-13T05:42:11.636Z,99175.88
2023-04-13T05:44:43.031Z,99162.84
2023-04-13T05:47:14.370Z,99181.00
2023-04-13T05:49:45.703Z,99177.47
2023-04-13T05:52:17.006Z,99173.91
2023-04-13T05:54:49.845Z,99136.44
2023-04-13T05:57:21.662Z,99170.94
2023-04-13T05:59:53.522Z,99170.75
2023-04-13T06:02:26.853Z,99165.31
2023-04-13T06:04:58.398Z,99171.38
2023-04-13T06:07:29.855Z,99159.00
2023-04-13T06:10:02.036Z,99160.75
2023-04-13T06:12:33.487Z,99162.44
2023-04-13T06:15:06.368Z,99165.84
2023-04-13T06:17:37.883Z,99168.31
2023-04-13T06:20:10.732Z,99169.91
2023-04-13T06:22:42.300Z,99173.31
2023-04-13T06:25:14.872Z,99179.28
2023-04-13T06:27:47.161Z,99185.31
2023-04-13T06:30:18.890Z,99199.19
2023-04-13T06:32:50.249Z,99192.81
2023-04-13T06:35:21.767Z,99189.84
2023-04-13T06:37:53.037Z,99192.16
2023-04-13T06:40:25.625Z,99191.69
2023-04-13T06:42:56.967Z,99173.63
2023-04-13T06:45:28.404Z,99185.19
2023-04-13T06:48:00.505Z,99158.91
2023-04-13T06:50:32.042Z,99195.00
2023-04-13T06:53:03.372Z,99192.97
2023-04-13T06:55:34.774Z,99192.34
2023-04-13T06:58:06.108Z,99199.41
2023-04-13T07:00:37.930Z,99181.09
2023-04-13T07:03:09.411Z,99196.72
2023-04-13T07:05:41.027Z,99194.88
2023-04-13T07:08:12.900Z,99178.59
2023-04-13T07:10:44.344Z,99204.34
2023-04-13T07:13:15.835Z,99197.97
2023-04-13T07:15:47.152Z,99201.53
2023-04-13T07:18:18.626Z,99193.06
2023-04-13T07:20:49.997Z,99206.38
2023-04-13T07:23:21.244Z,99214.19
2023-04-13T07:25:52.566Z,99213.34
2023-04-13T07:28:24.149Z,99209.38
2023-04-13T07:30:55.430Z,99221.34
2023-04-13T07:33:26.698Z,99212.78
2023-04-13T07:35:58.384Z,99226.88
2023-04-13T07:38:29.651Z,99219.22
2023-04-13T07:41:00.906Z,99221.66
2023-04-13T07:43:32.172Z,99234.88
2023-04-13T07:46:11.620Z,99215.75
2023-04-13T07:48:58.506Z,99235.13
2023-04-13T07:51:32.116Z,99241.78
2023-04-13T07:54:03.529Z,99247.44
2023-04-13T07:56:36.102Z,99248.22
2023-04-13T07:59:07.412Z,99231.97
2023-04-13T08:01:39.216Z,99263.75
2023-04-13T08:04:11.023Z,99234.16
2023-04-13T08:06:42.366Z,99259.53
2023-04-13T08:09:13.758Z,99248.81
2023-04-13T08:11:46.142Z,99269.94
2023-04-13T08:14:17.419Z,99270.19
2023-04-13T08:16:48.816Z,99280.56
2023-04-13T08:19:20.140Z,99285.56
2023-04-13T08:21:52.437Z,99296.75
2023-04-13T08:24:24.856Z,99293.84
2023-04-13T08:26:58.620Z,99273.03
2023-04-13T08:29:29.969Z,99306.63
2023-04-13T08:32:01.650Z,99300.84
2023-04-13T08:34:33.013Z,99302.34
2023-04-13T08:37:04.629Z,99313.00
2023-04-13T08:39:36.324Z,99305.94
2023-04-13T08:42:08.102Z,99318.72
2023-04-13T08:44:42.886Z,99310.31
2023-04-13T08:47:14.357Z,99320.22
2023-04-13T08:49:46.803Z,99307.31
2023-04-13T08:52:18.408Z,99332.63
2023-04-13T08:54:50.965Z,99324.28
2023-04-13T08:57:22.866Z,99318.94
2023-04-13T08:59:56.503Z,99328.63
2023-04-13T09:02:34.544Z,99324.66
2023-04-13T09:05:16.333Z,99328.19
2023-04-13T09:07:53.923Z,99345.44
2023-04-13T09:10:26.750Z,99341.66
2023-04-13T09:12:58.179Z,99336.34
2023-04-13T09:15:30.789Z,99351.94
2023-04-13T09:18:12.437Z,99356.59
2023-04-13T09:20:43.863Z,99365.56
2023-04-13T09:23:16.177Z,99337.13
2023-04-13T09:25:47.573Z,99372.28
2023-04-13T09:28:19.652Z,99367.72
2023-04-13T09:31:02.227Z,99353.47
2023-04-13T09:33:45.053Z,99374.25
2023-04-13T09:36:18.631Z,99388.38
2023-04-13T09:38:55.073Z,99381.31
2023-04-13T09:41:39.029Z,99382.22
2023-04-13T09:44:18.697Z,99383.81
2023-04-13T09:46:58.891Z,99390.78
2023-04-13T09:49:41.320Z,99394.81
2023-04-13T09:52:23.057Z,99391.53
2023-04-13T09:54:58.541Z,99397.91
2023-04-13T09:57:31.393Z,99389.72
2023-04-13T10:00:06.939Z,99404.31
2023-04-13T10:02:39.335Z,99395.78
2023-04-13T10:05:11.502Z,99405.63
2023-04-13T10:07:46.883Z,99415.94
2023-04-13T10:10:19.379Z,99425.50
2023-04-13T10:12:54.858Z,99431.00
2023-04-13T10:15:53.161Z,99418.41
2023-04-13T10:19:00.033Z,99411.88
2023-04-13T10:21:39.545Z,99430.75
2023-04-13T10:24:12.726Z,99437.28
2023-04-13T10:26:45.094Z,99437.47
2023-04-13T10:29:27.515Z,99447.31
2023-04-13T10:32:03.351Z,99455.75
2023-04-13T10:34:36.666Z,99448.78
2023-04-13T10:37:16.816Z,99458.16
2023-04-13T10:39:48.868Z,99458.41
2023-04-13T10:42:20.212Z,99445.41
2023-04-13T10:44:53.593Z,99469.09
2023-04-13T10:47:37.055Z,99466.63
2023-04-13T10:50:23.075Z,99476.59
2023-04-13T10:52:55.461Z,99483.38
2023-04-13T10:55:27.607Z,99479.00
2023-04-13T10:58:00.528Z,99487.13
2023-04-13T11:00:45.383Z,99477.66
2023-04-13T11:03:20.923Z,99476.53
2023-04-13T11:05:59.928Z,99494.19
2023-04-13T11:08:32.747Z,99489.00
2023-04-13T11:11:05.057Z,99494.25
2023-04-13T11:13:44.435Z,99481.31
2023-04-13T11:16:15.875Z,99500.16
2023-04-13T11:18:47.230Z,99499.38
2023-04-13T11:21:18.489Z,99491.69
2023-04-13T11:23:53.609Z,99510.66
2023-04-13T11:26:35.365Z,99517.22
2023-04-13T11:29:17.907Z,99519.31
2023-04-13T11:31:49.312Z,99529.97
2023-04-13T11:34:26.247Z,99524.13
2023-04-13T11:37:01.887Z,99539.56
2023-04-13T11:39:35.020Z,99512.91
2023-04-13T11:42:07.034Z,99514.69
2023-04-13T11:44:39.125Z,99526.72
2023-04-13T11:47:13.127Z,99529.59
2023-04-13T11:49:47.970Z,99513.66
2023-04-13T11:52:19.477Z,99527.84
2023-04-13T11:54:51.509Z,99514.53
2023-04-13T11:57:24.030Z,99535.19
2023-04-13T11:59:55.524Z,99548.66
2023-04-13T12:02:29.792Z,99536.78
2023-04-13T12:05:02.827Z,99549.03
2023-04-13T12:07:38.896Z,99560.69
2023-04-13T12:15:42.712Z,99549.56
2023-04-13T12:18:18.243Z,99558.53
2023-04-13T12:20:53.672Z,99559.63
2023-04-13T12:23:27.958Z,99550.94
2023-04-13T12:26:25.896Z,99559.22
2023-04-13T12:29:00.248Z,99559.50
2023-04-13T12:31:36.625Z,99556.47
2023-04-13T12:34:08.351Z,99546.97
2023-04-13T12:36:39.731Z,99567.25
2023-04-13T12:39:11.082Z,99577.78
2023-04-13T12:41:42.405Z,99573.34
2023-04-13T12:44:14.670Z,99554.25
2023-04-13T12:46:46.336Z,99564.53
2023-04-13T12:49:17.654Z,99579.75
2023-04-13T12:51:48.998Z,99565.78
2023-04-13T12:54:20.352Z,99583.25
2023-04-13T12:56:52.055Z,99595.47
2023-04-13T12:59:23.744Z,99601.91
2023-04-13T13:01:55.349Z,99588.88
2023-04-13T13:04:29.984Z,99603.47
2023-04-13T13:07:01.528Z,99597.84
2023-04-13T13:09:32.848Z,99580.56
2023-04-13T13:12:04.542Z,99610.44
2023-04-13T13:14:35.888Z,99608.50
2023-04-13T13:17:07.319Z,99608.31
2023-04-13T13:19:38.674Z,99610.53
2023-04-13T13:22:10.046Z,99609.50
2023-04-13T13:24:41.316Z,99608.75
2023-04-13T13:27:48.680Z,99601.50
2023-04-13T13:30:06.388Z,99602.19
2023-04-13T13:32:37.859Z,99614.38
2023-04-13T13:35:10.667Z,99614.44
2023-04-13T13:37:41.974Z,99635.16
2023-04-13T13:40:13.519Z,99631.34
2023-04-13T13:45:21.566Z,99638.94
2023-04-13T13:47:54.302Z,99642.38
2023-04-13T13:50:25.903Z,99636.69
2023-04-13T13:53:03.765Z,99650.16
2023-04-13T13:55:35.432Z,99652.66
2023-04-13T13:58:07.591Z,99653.63
2023-04-13T14:00:39.564Z,99664.84
2023-04-13T14:03:11.794Z,99660.63
2023-04-13T14:05:43.849Z,99666.56
2023-04-13T14:08:15.212Z,99681.66
2023-04-13T14:10:49.280Z,99702.88
2023-04-13T14:13:20.866Z,99705.28
2023-04-13T14:15:52.610Z,99709.00
2023-04-13T14:18:24.066Z,99729.28
2023-04-13T14:20:57.808Z,99729.16
2023-04-13T14:23:29.261Z,99744.47
2023-04-13T14:26:00.677Z,99725.44
2023-04-13T14:28:32.578Z,99753.94
2023-04-13T14:31:04.184Z,99732.13
2023-04-13T14:33:36.473Z,99751.69
2023-04-13T14:36:08.837Z,99746.66
2023-04-13T14:38:40.373Z,99736.75
2023-04-13T14:41:11.696Z,99761.97
2023-04-13T14:43:43.170Z,99763.53
2023-04-13T14:46:15.501Z,99742.47
2023-04-13T14:48:46.862Z,99759.47
2023-04-13T14:51:18.407Z,99763.59
2023-04-13T14:53:49.987Z,99744.81
2023-04-13T14:56:21.762Z,99767.06
2023-04-13T14:58:53.084Z,99758.19
2023-04-13T15:01:24.798Z,99755.84
2023-04-13T15:03:56.666Z,99766.56
2023-04-13T15:06:28.938Z,99771.81
2023-04-13T15:09:00.605Z,99761.09
2023-04-13T15:11:32.166Z,99772.91
2023-04-13T15:14:03.833Z,99759.97
2023-04-13T15:16:35.706Z,99763.31
2023-04-13T15:19:07.056Z,99774.31
2023-04-13T15:21:38.389Z,99773.88
2023-04-13T15:24:11.521Z,99776.78
2023-04-13T15:26:42.939Z,99787.72
2023-04-13T15:29:14.271Z,99799.41
2023-04-13T15:31:46.367Z,99795.72
2023-04-13T15:34:17.668Z,99810.31
2023-04-13T15:36:48.931Z,99818.16
2023-04-13T15:39:20.764Z,99822.34
2023-04-13T15:41:54.105Z,99826.81
2023-04-13T15:44:25.636Z,99843.88
2023-04-13T15:46:56.931Z,99844.72
2023-04-13T15:49:28.179Z,99833.63
2023-04-13T15:51:59.659Z,99844.53
2023-04-13T15:54:31.140Z,99833.63
2023-04-13T15:57:02.418Z,99850.47
2023-04-13T15:59:34.568Z,99855.56
2023-04-13T16:02:06.067Z,99853.19
2023-04-13T16:04:37.534Z,99866.72
2023-04-13T16:07:13.668Z,99869.84
2023-04-13T16:09:48.107Z,99846.34
2023-04-13T16:12:20.089Z,99862.06
2023-04-13T16:14:55.680Z,99889.63
2023-04-13T16:17:31.622Z,99880.31
2023-04-13T16:20:13.979Z,99887.81
2023-04-13T16:22:51.770Z,99894.00
2023-04-13T16:25:23.050Z,99898.97
2023-04-13T16:27:56.083Z,99904.53
2023-04-13T16:30:27.822Z,99922.41
2023-04-13T16:32:59.098Z,99920.81
2023-04-13T16:35:31.318Z,99916.53
2023-04-13T16:38:02.772Z,99898.69
2023-04-13T16:40:34.650Z,99917.72
2023-04-13T16:43:06.583Z,99919.94
2023-04-13T16:45:38.143Z,99897.41
2023-04-13T16:48:09.428Z,99922.75
2023-04-13T16:50:41.221Z,99925.41
2023-04-13T16:53:12.486Z,99924.50
2023-04-13T16:55:49.798Z,99914.03
2023-04-13T16:58:21.056Z,99945.59
2023-04-13T17:00:53.356Z,99929.97
2023-04-13T17:03:25.525Z,99931.03
2023-04-13T17:05:57.136Z,99914.16
2023-04-13T17:08:29.059Z,99935.28
2023-04-13T17:11:00.578Z,99948.91
2023-04-13T17:13:31.929Z,99945.84
2023-04-13T17:16:03.808Z,99949.38
2023-04-13T17:18:35.307Z,99950.59
2023-04-13T17:21:07.349Z,99966.25
2023-04-13T17:23:40.288Z,99960.13
2023-04-13T17:26:11.932Z,99964.41
2023-04-13T17:28:43.174Z,99958.91
2023-04-13T17:31:14.510Z,99959.69
2023-04-13T17:33:46.197Z,99960.38
2023-04-13T17:36:18.617Z,99981.03
2023-04-13T17:38:49.927Z,99984.22
2023-04-13T17:41:21.285Z,99971.69
2023-04-13T17:43:52.764Z,99990.59
2023-04-13T17:46:24.177Z,99993.84
2023-04-13T17:48:58.835Z,99967.59
2023-04-13T17:51:30.738Z,100001.75
2023-04-13T17:54:02.124Z,100001.13
2023-04-13T17:56:33.420Z,99986.75
2023-04-13T17:59:04.694Z,99992.34
2023-04-13T18:01:36.090Z,99989.09
2023-04-13T18:04:10.279Z,100008.75
2023-04-13T18:06:41.869Z,100001.38
2023-04-13T18:09:14.125Z,99997.63
2023-04-13T18:11:45.640Z,100019.94
2023-04-13T18:14:16.968Z,100011.78
2023-04-13T18:16:48.236Z,100029.66
2023-04-13T18:19:19.655Z,100034.28
2023-04-13T18:21:51.108Z,100037.31
2023-04-13T18:24:22.445Z,100009.72
2023-04-13T18:26:53.977Z,100042.25
2023-04-13T18:29:26.286Z,100048.69
2023-04-13T18:31:57.640Z,100061.34
2023-04-13T18:34:33.820Z,100050.22
2023-04-13T18:37:05.771Z,100068.09
2023-04-13T18:39:38.109Z,100075.19
2023-04-13T18:42:09.425Z,100051.75
2023-04-13T18:44:40.779Z,100063.28
2023-04-13T18:47:12.222Z,100079.09
2023-04-13T18:49:43.911Z,100088.88
2023-04-13T18:52:15.534Z,100080.31
2023-04-13T18:54:46.875Z,100097.91
2023-04-13T18:57:18.138Z,100094.50
2023-04-13T18:59:49.485Z,100107.91
2023-04-13T19:02:20.929Z,100103.81
2023-04-13T19:04:52.462Z,100120.50
2023-04-13T19:07:24.051Z,100104.06
2023-04-13T19:09:55.424Z,100132.84
2023-04-13T19:12:26.693Z,100118.84
2023-04-13T19:15:01.592Z,100120.50
2023-04-13T19:17:34.140Z,100107.53
2023-04-13T19:20:09.425Z,100131.22
2023-04-13T19:22:40.730Z,100113.91
2023-04-13T19:25:15.250Z,100122.75
2023-04-13T19:27:47.231Z,100138.50
2023-04-13T19:30:19.398Z,100144.72
2023-04-13T19:32:51.180Z,100158.84
2023-04-13T19:35:24.347Z,100163.25
2023-04-13T19:37:55.864Z,100143.00
2023-04-13T19:40:27.429Z,100141.25
2023-04-13T19:42:59.791Z,100156.97
2023-04-13T19:45:32.950Z,100152.66
2023-04-13T19:48:04.284Z,100165.94
2023-04-13T19:50:35.898Z,100153.09
2023-04-13T19:53:07.227Z,100167.19
2023-04-13T19:55:38.509Z,100170.06
2023-04-13T19:58:11.348Z,100172.91
2023-04-13T20:00:44.655Z,100174.91
2023-04-13T20:03:17.835Z,100183.81
2023-04-13T20:05:49.364Z,100171.66
2023-04-13T20:08:20.673Z,100169.16
2023-04-13T20:10:53.117Z,100165.78
2023-04-13T20:13:24.478Z,100172.88
2023-04-13T20:15:55.765Z,100185.25
2023-04-13T20:18:27.217Z,100185.38
2023-04-13T20:21:00.507Z,100184.53
2023-04-13T20:23:33.112Z,100190.78
2023-04-13T20:26:05.267Z,100150.63
2023-04-13T20:28:36.680Z,100183.91
2023-04-13T20:31:08.307Z,100185.78
2023-04-13T20:33:40.782Z,100178.84
2023-04-13T20:36:12.133Z,100186.78
2023-04-13T20:38:44.476Z,100170.28
2023-04-13T20:41:15.830Z,100193.97
2023-04-13T20:43:49.758Z,100194.03
2023-04-13T20:46:21.744Z,100171.34
2023-04-13T20:48:53.184Z,100200.28
2023-04-13T20:51:26.124Z,100194.19
2023-04-13T20:53:58.188Z,100169.84
2023-04-13T20:56:29.952Z,100191.66
2023-04-13T20:59:01.791Z,100201.41
2023-04-13T21:01:33.244Z,100204.09
2023-04-13T21:04:04.862Z,100208.56
2023-04-13T21:06:37.128Z,100219.13
2023-04-13T21:09:08.822Z,100202.53
2023-04-13T21:11:41.322Z,100219.19
2023-04-13T21:14:13.091Z,100213.97
2023-04-13T21:16:44.501Z,100214.88
2023-04-13T21:19:15.941Z,100214.91
2023-04-13T21:21:47.513Z,100214.91
2023-04-13T21:24:19.163Z,100197.44
2023-04-13T21:26:50.860Z,100209.72
2023-04-13T21:29:22.384Z,100209.75
2023-04-13T21:31:53.725Z,100227.28
2023-04-13T21:34:27.148Z,100229.94
2023-04-13T21:37:01.439Z,100230.81
2023-04-13T21:39:33.624Z,100221.19
2023-04-13T21:42:05.239Z,100223.84
2023-04-13T21:44:36.511Z,100227.38
2023-04-13T21:47:07.816Z,100227.41
2023-04-13T21:49:39.150Z,100229.22
2023-04-13T21:52:10.399Z,100225.72
2023-04-13T21:54:41.800Z,100211.75
2023-04-13T21:57:13.160Z,100213.50
2023-04-13T21:59:44.432Z,100221.38
2023-04-13T22:02:15.862Z,100229.28
2023-04-13T22:04:47.254Z,100228.41
2023-04-13T22:07:23.879Z,100226.66
2023-04-13T22:09:59.896Z,100213.56
2023-04-13T22:12:31.191Z,100232.81
2023-04-13T22:15:02.677Z,100232.81
2023-04-13T22:17:34.042Z,100221.44
2023-04-13T22:20:05.894Z,100221.44
2023-04-13T22:22:37.208Z,100228.47
2023-04-13T22:25:08.653Z,100230.22
2023-04-13T22:27:40.246Z,100232.84
2023-04-13T22:30:12.156Z,100218.81
2023-04-13T22:32:43.485Z,100223.22
2023-04-13T22:35:14.810Z,100223.22
2023-04-13T22:37:46.065Z,100227.59
2023-04-13T22:40:17.448Z,100222.34
2023-04-13T22:42:48.696Z,100221.47
2023-04-13T22:45:20.651Z,100199.59
2023-04-13T22:47:55.084Z,100210.97
2023-04-13T22:50:26.456Z,100201.34
2023-04-13T22:52:57.738Z,100223.22
2023-04-13T22:55:29.306Z,100210.13
2023-04-13T22:58:00.603Z,100222.38
2023-04-13T23:00:31.878Z,100238.09
2023-04-13T23:03:03.428Z,100253.00
2023-04-13T23:05:35.448Z,100250.38
2023-04-13T23:08:06.734Z,100251.25
2023-04-13T23:10:38.064Z,100249.50
2023-04-13T23:13:09.323Z,100236.38
2023-04-13T23:15:40.966Z,100261.75
2023-04-13T23:18:12.251Z,100253.88
2023-04-13T23:20:43.537Z,100265.25
2023-04-13T23:23:14.795Z,100267.00
2023-04-13T23:25:52.087Z,100249.50
2023-04-13T23:28:23.487Z,100271.38
2023-04-13T23:31:05.805Z,100267.88
2023-04-13T23:33:37.211Z,100263.47
2023-04-13T23:36:09.031Z,100264.38
2023-04-13T23:38:41.613Z,100265.22
2023-04-13T23:41:12.853Z,100265.22
2023-04-13T23:43:44.099Z,100276.63
2023-04-13T23:46:15.568Z,100275.75
2023-04-13T23:48:46.973Z,100279.22
2023-04-13T23:51:18.274Z,100271.34
2023-04-13T23:53:49.566Z,100288.84
2023-04-13T23:56:21.083Z,100271.28
2023-04-13T23:58:52.362Z,100289.69
